createdAt,value
2019-06-01T00:00:11.616Z,14.13
2019-06-01T00:02:57.036Z,12.60
2019-06-01T00:05:43.164Z,13.23
2019-06-01T00:08:29.399Z,13.60
2019-06-01T00:11:15.594Z,13.10
2019-06-01T00:14:01.802Z,13.77
2019-06-01T00:16:48.208Z,12.53
2019-06-01T00:19:34.404Z,12.90
2019-06-01T00:22:20.514Z,13.97
2019-06-01T00:25:06.855Z,13.77
2019-06-01T00:27:52.938Z,13.77
2019-06-01T00:30:39.234Z,14.87
2019-06-01T00:33:25.260Z,14.57
2019-06-01T00:36:11.460Z,14.97
2019-06-01T00:38:57.588Z,16.30
2019-06-01T00:41:43.985Z,15.40
2019-06-01T00:44:30.040Z,16.07
2019-06-01T00:47:16.399Z,16.53
2019-06-01T00:50:02.639Z,17.90
2019-06-01T00:52:49.269Z,16.70
2019-06-01T00:55:35.484Z,17.07
2019-06-01T00:58:21.759Z,18.07
2019-06-01T01:01:07.960Z,18.03
2019-06-01T01:03:54.468Z,16.90
2019-06-01T01:06:40.650Z,19.77
2019-06-01T01:09:26.779Z,19.27
2019-06-01T01:12:12.864Z,23.40
2019-06-01T01:14:58.959Z,20.93
2019-06-01T01:17:45.748Z,20.40
2019-06-01T01:20:32.210Z,19.73
2019-06-01T01:23:18.522Z,23.60
2019-06-01T01:26:04.751Z,18.47
2019-06-01T01:28:51.039Z,18.90
2019-06-01T01:31:36.964Z,18.30
2019-06-01T01:34:23.469Z,17.17
2019-06-01T01:37:09.805Z,18.10
2019-06-01T01:39:56.293Z,18.30
2019-06-01T01:42:42.830Z,18.80
2019-06-01T01:45:29.069Z,18.90
2019-06-01T01:48:15.265Z,18.17
2019-06-01T01:51:02.722Z,17.50
2019-06-01T01:53:50.479Z,18.83
2019-06-01T01:56:37.014Z,19.47
2019-06-01T01:59:23.359Z,18.77
2019-06-01T02:02:09.495Z,20.27
2019-06-01T02:04:55.897Z,18.83
2019-06-01T02:07:42.124Z,20.53
2019-06-01T02:10:28.139Z,20.93
2019-06-01T02:13:14.444Z,21.40
2019-06-01T02:16:00.971Z,20.77
2019-06-01T02:18:48.871Z,21.23
2019-06-01T02:21:35.084Z,22.93
2019-06-01T02:24:21.205Z,20.63
2019-06-01T02:27:07.383Z,19.50
2019-06-01T02:29:53.569Z,20.17
2019-06-01T02:32:39.583Z,21.17
2019-06-01T02:35:25.880Z,20.50
2019-06-01T02:38:12.426Z,21.50
2019-06-01T02:40:58.968Z,21.57
2019-06-01T02:43:45.650Z,20.20
2019-06-01T02:46:35.428Z,21.07
2019-06-01T02:49:22.012Z,21.80
2019-06-01T02:52:08.064Z,23.63
2019-06-01T02:54:55.532Z,20.63
2019-06-01T02:57:42.179Z,22.33
2019-06-01T03:01:22.225Z,21.67
2019-06-01T03:04:09.668Z,21.30
2019-06-01T03:06:55.944Z,22.47
2019-06-01T03:09:42.294Z,22.07
2019-06-01T03:12:29.678Z,22.07
2019-06-01T03:15:16.741Z,21.93
2019-06-01T03:18:03.744Z,23.67
2019-06-01T03:20:50.462Z,22.10
2019-06-01T03:23:38.484Z,22.60
2019-06-01T03:26:26.099Z,21.53
2019-06-01T03:29:14.491Z,22.47
2019-06-01T03:32:19.315Z,21.07
2019-06-01T03:34:48.980Z,22.47
2019-06-01T03:37:35.289Z,22.20
2019-06-01T03:40:24.018Z,20.77
2019-06-01T03:43:09.884Z,19.23
2019-06-01T03:45:55.924Z,18.33
2019-06-01T03:48:42.049Z,18.33
2019-06-01T03:51:28.229Z,18.00
2019-06-01T03:54:14.621Z,16.23
2019-06-01T03:57:00.975Z,15.80
2019-06-01T03:59:47.114Z,16.03
2019-06-01T04:02:33.560Z,15.07
2019-06-01T04:05:19.599Z,15.43
2019-06-01T04:08:05.863Z,14.97
2019-06-01T04:10:52.042Z,14.97
2019-06-01T04:13:38.184Z,14.07
2019-06-01T04:16:24.325Z,13.47
2019-06-01T04:19:10.725Z,13.83
2019-06-01T04:21:56.988Z,13.70
2019-06-01T04:24:43.329Z,14.37
2019-06-01T04:27:29.532Z,12.63
2019-06-01T04:30:15.668Z,11.90
2019-06-01T04:33:02.591Z,12.07
2019-06-01T04:35:48.928Z,11.60
2019-06-01T04:38:37.149Z,11.57
2019-06-01T04:41:23.503Z,11.40
2019-06-01T04:44:10.060Z,11.17
2019-06-01T04:46:56.705Z,11.83
2019-06-01T04:49:43.067Z,11.97
2019-06-01T04:52:29.399Z,10.53
2019-06-01T04:55:15.349Z,10.63
2019-06-01T04:58:02.512Z,10.77
2019-06-01T05:00:48.961Z,10.13
2019-06-01T05:03:34.968Z,11.20
2019-06-01T05:06:21.625Z,9.50
2019-06-01T05:09:09.167Z,9.23
2019-06-01T05:11:55.464Z,7.87
2019-06-01T05:14:42.129Z,7.20
2019-06-01T05:17:28.714Z,6.90
2019-06-01T05:20:16.633Z,7.93
2019-06-01T05:23:03.449Z,6.50
2019-06-01T05:25:53.156Z,7.00
2019-06-01T05:28:38.034Z,6.70
2019-06-01T05:31:25.226Z,6.00
2019-06-01T05:34:11.959Z,6.27
2019-06-01T05:36:58.215Z,6.90
2019-06-01T05:39:44.404Z,6.17
2019-06-01T05:42:31.192Z,7.10
2019-06-01T05:45:19.288Z,6.63
2019-06-01T05:48:06.070Z,7.20
2019-06-01T05:50:52.564Z,7.53
2019-06-01T05:53:38.719Z,6.37
2019-06-01T05:56:25.410Z,6.03
2019-06-01T05:59:12.310Z,7.53
2019-06-01T06:01:58.996Z,6.30
2019-06-01T06:04:45.714Z,9.03
2019-06-01T06:07:32.426Z,8.33
2019-06-01T06:10:19.861Z,6.63
2019-06-01T06:13:06.739Z,6.17
2019-06-01T06:15:53.559Z,6.07
2019-06-01T06:18:39.849Z,5.20
2019-06-01T06:21:26.158Z,6.57
2019-06-01T06:24:12.804Z,7.10
2019-06-01T06:26:58.858Z,7.03
2019-06-01T06:29:44.966Z,5.77
2019-06-01T06:32:31.328Z,6.00
2019-06-01T06:35:17.481Z,9.17
2019-06-01T06:38:03.644Z,5.45
2019-06-01T06:40:49.804Z,5.90
2019-06-01T06:43:35.980Z,6.83
2019-06-01T06:46:22.801Z,6.67
2019-06-01T06:49:10.049Z,7.07
2019-06-01T06:51:56.719Z,6.60
2019-06-01T06:54:42.911Z,6.83
2019-06-01T06:57:28.969Z,5.83
2019-06-01T07:00:16.297Z,6.30
2019-06-01T07:03:03.083Z,6.55
2019-06-01T07:05:49.144Z,10.53
2019-06-01T07:08:35.303Z,7.90
2019-06-01T07:11:21.582Z,7.58
2019-06-01T07:14:07.625Z,6.10
2019-06-01T07:16:53.819Z,6.47
2019-06-01T07:19:40.304Z,7.15
2019-06-01T07:22:27.813Z,7.25
2019-06-01T07:25:14.387Z,7.40
2019-06-01T07:28:00.778Z,7.00
2019-06-01T07:30:50.435Z,8.25
2019-06-01T07:33:35.069Z,7.37
2019-06-01T07:36:22.244Z,7.00
2019-06-01T07:39:08.584Z,7.28
2019-06-01T07:41:54.733Z,8.08
2019-06-01T07:44:42.109Z,6.97
2019-06-01T07:47:29.171Z,8.38
2019-06-01T07:50:15.363Z,7.22
2019-06-01T07:53:01.829Z,7.03
2019-06-01T07:55:47.914Z,6.30
2019-06-01T07:58:34.219Z,6.65
2019-06-01T08:01:22.782Z,8.50
2019-06-01T08:04:09.797Z,7.00
2019-06-01T08:06:56.297Z,7.97
2019-06-01T08:09:43.067Z,7.00
2019-06-01T08:12:29.818Z,7.37
2019-06-01T08:15:17.340Z,6.15
2019-06-01T08:18:03.589Z,8.75
2019-06-01T08:20:50.128Z,7.28
2019-06-01T08:23:36.688Z,6.90
2019-06-01T08:26:24.298Z,8.23
2019-06-01T08:29:10.733Z,11.28
2019-06-01T08:31:57.176Z,6.42
2019-06-01T08:34:44.766Z,7.28
2019-06-01T08:37:31.664Z,5.58
2019-06-01T08:40:18.453Z,5.28
2019-06-01T08:43:04.875Z,5.25
2019-06-01T08:45:51.511Z,5.10
2019-06-01T08:48:37.985Z,5.30
2019-06-01T08:51:26.491Z,5.50
2019-06-01T08:54:13.734Z,5.08
2019-06-01T08:57:00.255Z,4.75
2019-06-01T08:59:46.471Z,5.12
2019-06-01T09:02:32.874Z,4.53
2019-06-01T09:05:24.400Z,4.40
2019-06-01T09:08:10.244Z,4.08
2019-06-01T09:10:56.531Z,3.58
2019-06-01T09:13:43.334Z,5.20
2019-06-01T09:16:29.710Z,7.22
2019-06-01T09:19:15.945Z,4.55
2019-06-01T09:22:02.226Z,8.03
2019-06-01T09:24:48.429Z,3.70
2019-06-01T09:27:35.995Z,6.15
2019-06-01T09:30:22.466Z,4.55
2019-06-01T09:33:08.480Z,4.37
2019-06-01T09:35:56.375Z,7.95
2019-06-01T09:38:43.016Z,6.55
2019-06-01T09:41:29.099Z,4.40
2019-06-01T09:44:15.332Z,7.30
2019-06-01T09:47:01.455Z,5.92
2019-06-01T09:49:47.589Z,5.72
2019-06-01T09:52:33.750Z,6.03
2019-06-01T09:55:19.640Z,5.35
2019-06-01T09:58:05.822Z,6.25
2019-06-01T10:00:52.210Z,4.00
2019-06-01T10:03:38.575Z,4.80
2019-06-01T10:06:24.936Z,6.40
2019-06-01T10:09:11.329Z,6.60
2019-06-01T10:11:58.552Z,4.12
2019-06-01T10:14:44.797Z,3.92
2019-06-01T10:17:33.300Z,4.62
2019-06-01T10:20:20.439Z,4.90
2019-06-01T10:23:09.144Z,4.87
2019-06-01T10:25:55.569Z,5.00
2019-06-01T10:28:43.166Z,5.80
2019-06-01T10:31:32.620Z,4.20
2019-06-01T10:34:17.773Z,5.70
2019-06-01T10:37:04.133Z,6.40
2019-06-01T10:39:50.560Z,4.97
2019-06-01T10:42:38.491Z,4.17
2019-06-01T10:45:27.085Z,4.07
2019-06-01T10:48:13.445Z,4.30
2019-06-01T10:50:59.610Z,4.70
2019-06-01T10:53:45.731Z,4.00
2019-06-01T10:56:32.331Z,2.75
2019-06-01T10:59:18.693Z,3.37
2019-06-01T11:02:04.809Z,4.03
2019-06-01T11:04:51.943Z,3.92
2019-06-01T11:07:39.244Z,5.55
2019-06-01T11:10:25.359Z,5.60
2019-06-01T11:13:11.557Z,4.65
2019-06-01T11:15:57.858Z,4.00
2019-06-01T11:18:43.990Z,4.90
2019-06-01T11:21:30.105Z,4.53
2019-06-01T11:24:17.245Z,5.45
2019-06-01T11:27:04.704Z,4.45
2019-06-01T11:29:51.685Z,7.12
2019-06-01T11:32:39.987Z,5.28
2019-06-01T11:35:26.567Z,4.35
2019-06-01T11:38:12.841Z,5.75
2019-06-01T11:40:58.921Z,4.27
2019-06-01T11:43:46.137Z,6.30
2019-06-01T11:46:32.802Z,7.30
2019-06-01T11:49:21.078Z,3.93
2019-06-01T11:52:07.201Z,6.47
2019-06-01T11:54:54.596Z,3.83
2019-06-01T11:57:41.589Z,6.20
2019-06-01T12:00:29.315Z,6.53
2019-06-01T12:03:15.563Z,3.90
2019-06-01T12:06:01.702Z,4.67
2019-06-01T12:08:48.863Z,3.87
2019-06-01T12:11:36.216Z,2.90
2019-06-01T12:14:22.182Z,4.20
2019-06-01T12:17:08.324Z,3.27
2019-06-01T12:19:54.476Z,3.90
2019-06-01T12:22:40.896Z,6.43
2019-06-01T12:25:26.896Z,3.90
2019-06-01T12:28:14.468Z,3.73
2019-06-01T12:31:01.061Z,5.07
2019-06-01T12:33:48.195Z,4.50
2019-06-01T12:36:35.395Z,8.83
2019-06-01T12:39:21.425Z,5.83
2019-06-01T12:42:07.705Z,7.67
2019-06-01T12:44:54.092Z,5.73
2019-06-01T12:47:40.361Z,4.77
2019-06-01T12:50:27.621Z,5.03
2019-06-01T12:53:14.161Z,4.13
2019-06-01T12:56:00.541Z,5.37
2019-06-01T12:58:48.066Z,3.33
2019-06-01T13:01:34.591Z,4.40
2019-06-01T13:04:20.921Z,4.10
2019-06-01T13:07:07.256Z,4.30
2019-06-01T13:09:53.586Z,4.37
2019-06-01T13:12:40.987Z,4.00
2019-06-01T13:15:27.427Z,3.47
2019-06-01T13:18:14.865Z,4.27
2019-06-01T13:21:02.202Z,3.13
2019-06-01T13:23:49.656Z,2.97
2019-06-01T13:26:36.248Z,3.10
2019-06-01T13:29:22.505Z,3.40
2019-06-01T13:32:08.841Z,3.33
2019-06-01T13:34:55.001Z,3.27
2019-06-01T13:37:42.356Z,3.33
2019-06-01T13:40:28.752Z,2.80
2019-06-01T13:43:15.096Z,3.90
2019-06-01T13:46:01.084Z,3.10
2019-06-01T13:48:47.539Z,3.23
2019-06-01T13:51:33.869Z,3.43
2019-06-01T13:54:21.099Z,3.53
2019-06-01T13:57:08.316Z,3.30
2019-06-01T13:59:55.037Z,2.77
2019-06-01T14:02:41.246Z,3.43
2019-06-01T14:05:27.391Z,2.50
2019-06-01T14:08:27.921Z,3.87
2019-06-01T14:11:04.089Z,3.33
2019-06-01T14:13:50.165Z,3.00
2019-06-01T14:16:36.379Z,8.87
2019-06-01T14:19:22.472Z,3.17
2019-06-01T14:22:08.605Z,2.90
2019-06-01T14:25:10.345Z,3.10
2019-06-01T14:27:43.681Z,2.70
2019-06-01T14:30:29.897Z,2.90
2019-06-01T14:33:16.224Z,3.50
2019-06-01T14:36:02.321Z,2.60
2019-06-01T14:38:50.360Z,2.70
2019-06-01T14:41:36.761Z,3.80
2019-06-01T14:44:22.893Z,4.07
2019-06-01T14:47:09.086Z,3.40
2019-06-01T14:49:55.738Z,3.57
2019-06-01T14:52:42.496Z,3.43
2019-06-01T14:55:28.617Z,3.43
2019-06-01T14:58:14.876Z,4.63
2019-06-01T15:01:01.051Z,5.10
2019-06-01T15:03:48.139Z,5.47
2019-06-01T15:06:34.521Z,2.67
2019-06-01T15:09:20.850Z,3.13
2019-06-01T15:12:07.492Z,2.20
2019-06-01T15:14:53.831Z,5.63
2019-06-01T15:17:39.881Z,3.87
2019-06-01T15:20:28.611Z,2.93
2019-06-01T15:23:14.922Z,3.33
2019-06-01T15:26:01.121Z,3.50
2019-06-01T15:28:47.262Z,3.03
2019-06-01T15:31:33.691Z,2.87
2019-06-01T15:34:19.881Z,3.17
2019-06-01T15:37:06.047Z,3.93
2019-06-01T15:39:54.574Z,3.17
2019-06-01T15:42:40.911Z,3.43
2019-06-01T15:45:27.160Z,4.03
2019-06-01T15:48:13.502Z,3.33
2019-06-01T15:51:05.415Z,2.90
2019-06-01T15:53:48.783Z,3.40
2019-06-01T15:56:38.028Z,3.93
2019-06-01T15:59:25.459Z,4.40
2019-06-01T16:02:11.522Z,3.67
2019-06-01T16:04:59.185Z,3.90
2019-06-01T16:07:45.652Z,4.13
2019-06-01T16:10:31.911Z,3.07
2019-06-01T16:13:17.816Z,2.60
2019-06-01T16:16:05.235Z,2.73
2019-06-01T16:18:51.739Z,3.20
2019-06-01T16:21:38.835Z,3.27
2019-06-01T16:24:25.140Z,3.20
2019-06-01T16:27:12.156Z,3.53
2019-06-01T16:30:00.202Z,3.80
2019-06-01T16:32:46.763Z,2.90
2019-06-01T16:35:32.801Z,3.40
2019-06-01T16:38:19.039Z,3.30
2019-06-01T16:41:05.587Z,3.90
2019-06-01T16:43:51.667Z,3.07
2019-06-01T16:46:39.914Z,4.03
2019-06-01T16:49:27.351Z,3.57
2019-06-01T16:52:13.702Z,4.10
2019-06-01T16:55:00.487Z,3.80
2019-06-01T16:57:46.722Z,3.90
2019-06-01T17:00:33.943Z,4.87
2019-06-01T17:03:20.417Z,6.33
2019-06-01T17:06:06.914Z,3.60
2019-06-01T17:08:53.096Z,3.93
2019-06-01T17:11:39.271Z,3.80
2019-06-01T17:14:25.471Z,4.17
2019-06-01T17:17:11.722Z,3.83
2019-06-01T17:19:58.998Z,3.67
2019-06-01T17:22:45.690Z,3.63
2019-06-01T17:25:31.671Z,4.80
2019-06-01T17:28:17.857Z,3.77
2019-06-01T17:31:04.407Z,4.03
2019-06-01T17:33:50.537Z,3.90
2019-06-01T17:36:36.612Z,4.10
2019-06-01T17:39:22.893Z,4.00
2019-06-01T17:42:09.071Z,4.40
2019-06-01T17:44:55.356Z,5.37
2019-06-01T17:47:41.411Z,5.10
2019-06-01T17:50:27.576Z,4.10
2019-06-01T17:53:13.823Z,4.33
2019-06-01T17:55:59.936Z,4.50
2019-06-01T17:58:46.049Z,4.83
2019-06-01T18:01:32.490Z,5.40
2019-06-01T18:04:18.516Z,5.03
2019-06-01T18:07:05.748Z,3.50
2019-06-01T18:09:52.224Z,4.60
2019-06-01T18:12:39.304Z,3.60
2019-06-01T18:15:25.573Z,5.63
2019-06-01T18:18:12.817Z,4.10
2019-06-01T18:20:59.511Z,4.77
2019-06-01T18:23:49.303Z,4.00
2019-06-01T18:26:36.976Z,3.70
2019-06-01T18:29:23.136Z,4.33
2019-06-01T18:32:09.559Z,4.97
2019-06-01T18:34:55.951Z,4.67
2019-06-01T18:37:42.191Z,5.00
2019-06-01T18:40:28.336Z,5.13
2019-06-01T18:43:17.162Z,5.30
2019-06-01T18:46:03.708Z,4.83
2019-06-01T18:48:50.176Z,4.97
2019-06-01T18:51:36.601Z,4.60
2019-06-01T18:54:22.705Z,5.13
2019-06-01T18:57:15.501Z,8.37
2019-06-01T18:59:56.992Z,12.17
2019-06-01T19:02:43.341Z,12.77
2019-06-01T19:05:30.617Z,13.30
2019-06-01T19:08:17.695Z,11.53
2019-06-01T19:11:05.577Z,6.93
2019-06-01T19:13:51.856Z,7.03
2019-06-01T19:16:38.011Z,6.57
2019-06-01T19:19:24.673Z,8.67
2019-06-01T19:22:11.196Z,6.40
2019-06-01T19:24:58.496Z,6.30
2019-06-01T19:27:44.801Z,6.37
2019-06-01T19:30:37.931Z,7.30
2019-06-01T19:33:24.101Z,6.60
2019-06-01T19:36:11.072Z,6.73
2019-06-01T19:38:58.017Z,6.57
2019-06-01T19:41:45.473Z,7.30
2019-06-01T19:44:31.469Z,6.73
2019-06-01T19:47:19.112Z,8.13
2019-06-01T19:50:06.232Z,6.47
2019-06-01T19:52:52.540Z,6.50
2019-06-01T19:55:38.903Z,6.90
2019-06-01T19:58:25.111Z,6.73
2019-06-01T20:01:14.199Z,7.20
2019-06-01T20:04:00.661Z,6.90
2019-06-01T20:06:46.931Z,8.20
2019-06-01T20:09:33.162Z,6.73
2019-06-01T20:12:20.565Z,6.30
2019-06-01T20:15:07.049Z,7.23
2019-06-01T20:17:54.116Z,8.67
2019-06-01T20:20:39.970Z,7.40
2019-06-01T20:23:26.371Z,8.03
2019-06-01T20:26:13.901Z,7.13
2019-06-01T20:29:02.253Z,7.60
2019-06-01T20:31:48.587Z,7.77
2019-06-01T20:34:34.501Z,6.70
2019-06-01T20:37:20.746Z,8.87
2019-06-01T20:40:07.391Z,7.17
2019-06-01T20:42:53.807Z,10.23
2019-06-01T20:45:40.176Z,8.03
2019-06-01T20:48:26.266Z,7.00
2019-06-01T20:51:13.179Z,8.33
2019-06-01T20:53:59.491Z,7.23
2019-06-01T20:56:45.691Z,8.00
2019-06-01T20:59:31.582Z,8.00
2019-06-01T21:02:18.066Z,7.93
2019-06-01T21:05:05.537Z,7.57
2019-06-01T21:07:51.703Z,7.93
2019-06-01T21:10:37.836Z,9.40
2019-06-01T21:13:24.251Z,10.73
2019-06-01T21:16:10.697Z,9.17
2019-06-01T21:18:57.091Z,11.37
2019-06-01T21:21:43.256Z,11.50
2019-06-01T21:24:29.617Z,11.17
2019-06-01T21:27:16.517Z,12.87
2019-06-01T21:30:03.065Z,17.40
2019-06-01T21:32:49.551Z,17.70
2019-06-01T21:35:35.968Z,15.27
2019-06-01T21:38:22.004Z,12.63
2019-06-01T21:41:08.112Z,13.10
2019-06-01T21:43:54.551Z,12.07
2019-06-01T21:46:40.782Z,12.50
2019-06-01T21:49:26.885Z,12.67
2019-06-01T21:52:13.389Z,11.90
2019-06-01T21:54:59.331Z,8.77
2019-06-01T21:57:46.701Z,8.50
2019-06-01T22:00:37.303Z,9.03
2019-06-01T22:03:23.275Z,10.13
2019-06-01T22:06:09.196Z,9.23
2019-06-01T22:08:55.421Z,10.20
2019-06-01T22:11:41.521Z,10.87
2019-06-01T22:14:27.796Z,11.30
2019-06-01T22:17:14.611Z,10.33
2019-06-01T22:20:00.659Z,10.80
2019-06-01T22:22:46.976Z,13.23
2019-06-01T22:25:33.091Z,11.63
2019-06-01T22:28:20.341Z,11.47
2019-06-01T22:31:07.057Z,12.20
2019-06-01T22:33:53.516Z,12.10
2019-06-01T22:36:39.861Z,12.00
2019-06-01T22:39:26.947Z,13.77
2019-06-01T22:42:13.557Z,12.33
2019-06-01T22:45:02.109Z,13.00
2019-06-01T22:47:48.402Z,13.67
2019-06-01T22:50:34.676Z,13.67
2019-06-01T22:53:22.007Z,12.87
2019-06-01T22:56:08.821Z,13.53
2019-06-01T22:58:55.103Z,13.10
2019-06-01T23:01:41.041Z,12.80
2019-06-01T23:04:27.277Z,13.57
2019-06-01T23:07:13.581Z,12.00
2019-06-01T23:09:59.741Z,11.97
2019-06-01T23:12:45.872Z,13.43
2019-06-01T23:15:32.071Z,12.93
2019-06-01T23:18:18.197Z,13.60
2019-06-01T23:21:04.621Z,13.43
2019-06-01T23:23:50.596Z,13.47
2019-06-01T23:26:36.386Z,14.30
2019-06-01T23:29:23.964Z,13.90
2019-06-01T23:32:10.236Z,12.97
2019-06-01T23:34:56.481Z,13.57
2019-06-01T23:37:42.737Z,13.10
2019-06-01T23:40:30.800Z,12.80
2019-06-01T23:43:16.991Z,12.90
2019-06-01T23:46:03.581Z,12.87
2019-06-01T23:48:50.131Z,14.13
2019-06-01T23:51:36.241Z,15.10
2019-06-01T23:54:23.527Z,15.33
2019-06-01T23:57:09.752Z,14.77
2019-06-01T23:59:55.972Z,15.63
